createdAt,value
2022-10-11T00:01:27.301Z,14.04
2022-10-11T00:03:53.720Z,13.98
2022-10-11T00:06:20.312Z,13.96
2022-10-11T00:08:46.985Z,13.85
2022-10-11T00:11:13.483Z,13.85
2022-10-11T00:13:39.833Z,13.80
2022-10-11T00:16:11.023Z,13.92
2022-10-11T00:18:38.105Z,13.87
2022-10-11T00:21:06.921Z,13.81
2022-10-11T00:23:33.859Z,13.82
2022-10-11T00:26:02.968Z,13.73
2022-10-11T00:28:30.327Z,13.65
2022-10-11T00:30:57.205Z,13.63
2022-10-11T00:33:23.794Z,13.58
2022-10-11T00:35:50.386Z,13.58
2022-10-11T00:38:17.168Z,13.61
2022-10-11T00:40:44.733Z,13.52
2022-10-11T00:43:24.679Z,13.48
2022-10-11T00:45:56.792Z,13.39
2022-10-11T00:48:48.973Z,13.39
2022-10-11T00:51:23.896Z,13.31
2022-10-11T00:53:51.842Z,13.25
2022-10-11T00:56:26.254Z,13.22
2022-10-11T00:58:55.500Z,13.16
2022-10-11T01:01:21.865Z,13.15
2022-10-11T01:03:48.236Z,13.07
2022-10-11T01:06:14.646Z,13.08
2022-10-11T01:08:41.125Z,12.96
2022-10-11T01:11:12.361Z,12.89
2022-10-11T01:13:52.195Z,12.81
2022-10-11T01:16:30.951Z,12.76
2022-10-11T01:19:23.261Z,12.64
2022-10-11T01:22:04.029Z,12.58
2022-10-11T01:24:52.008Z,12.53
2022-10-11T01:27:54.004Z,12.41
2022-10-11T01:30:33.194Z,12.35
2022-10-11T01:33:32.652Z,12.29
2022-10-11T01:36:13.637Z,12.22
2022-10-11T01:38:52.413Z,12.24
2022-10-11T01:41:24.446Z,12.18
2022-10-11T01:43:57.463Z,12.14
2022-10-11T01:46:24.350Z,12.00
2022-10-11T01:48:53.455Z,12.02
2022-10-11T01:51:24.618Z,11.93
2022-10-11T01:54:20.386Z,11.87
2022-10-11T01:57:29.236Z,11.75
2022-10-11T02:00:00.176Z,11.67
2022-10-11T02:02:38.874Z,11.62
2022-10-11T02:05:15.795Z,11.59
2022-10-11T02:07:53.409Z,11.40
2022-10-11T02:10:35.191Z,11.30
2022-10-11T02:13:09.066Z,11.23
2022-10-11T02:15:39.109Z,11.16
2022-10-11T02:18:10.734Z,11.04
2022-10-11T02:20:41.154Z,10.98
2022-10-11T02:23:17.705Z,10.86
2022-10-11T02:25:45.456Z,10.81
2022-10-11T02:28:16.733Z,10.80
2022-10-11T02:30:47.689Z,10.79
2022-10-11T02:33:17.831Z,10.81
2022-10-11T02:35:48.013Z,10.74
2022-10-11T02:38:26.717Z,10.64
2022-10-11T02:41:21.802Z,10.62
2022-10-11T02:43:56.852Z,10.50
2022-10-11T02:46:25.117Z,10.44
2022-10-11T02:48:52.117Z,10.35
2022-10-11T02:51:18.655Z,10.30
2022-10-11T02:53:45.355Z,10.20
2022-10-11T02:56:12.074Z,10.19
2022-10-11T02:58:38.368Z,10.09
2022-10-11T03:01:04.838Z,9.99
2022-10-11T03:03:31.338Z,9.94
2022-10-11T03:06:02.610Z,9.86
2022-10-11T03:08:29.483Z,9.78
2022-10-11T03:10:56.161Z,9.67
2022-10-11T03:13:22.576Z,9.49
2022-10-11T03:16:02.885Z,9.51
2022-10-11T03:18:30.487Z,9.39
2022-10-11T03:20:56.936Z,9.35
2022-10-11T03:23:23.284Z,9.31
2022-10-11T03:25:49.702Z,9.26
2022-10-11T03:28:16.033Z,9.15
2022-10-11T03:30:42.486Z,9.12
2022-10-11T03:33:08.813Z,9.07
2022-10-11T03:35:35.120Z,8.98
2022-10-11T03:38:01.790Z,9.01
2022-10-11T03:40:28.213Z,8.94
2022-10-11T03:42:54.864Z,8.91
2022-10-11T03:45:21.258Z,8.95
2022-10-11T03:47:47.599Z,8.81
2022-10-11T03:50:13.931Z,8.77
2022-10-11T03:52:40.334Z,8.77
2022-10-11T03:55:07.237Z,8.68
2022-10-11T03:57:33.596Z,8.63
2022-10-11T04:00:00.024Z,8.68
2022-10-11T04:02:26.476Z,8.72
2022-10-11T04:04:52.866Z,8.66
2022-10-11T04:07:19.215Z,8.58
2022-10-11T04:09:45.837Z,8.53
2022-10-11T04:12:12.156Z,8.47
2022-10-11T04:14:38.468Z,8.41
2022-10-11T04:17:05.122Z,8.33
2022-10-11T04:19:31.527Z,8.29
2022-10-11T04:21:57.944Z,8.23
2022-10-11T04:24:24.308Z,8.16
2022-10-11T04:26:51.129Z,8.16
2022-10-11T04:29:19.682Z,8.10
2022-10-11T04:31:45.990Z,8.03
2022-10-11T04:34:12.446Z,8.02
2022-10-11T04:36:38.891Z,7.96
2022-10-11T04:39:06.858Z,7.97
2022-10-11T04:41:33.903Z,7.84
2022-10-11T04:44:01.764Z,7.85
2022-10-11T04:46:28.541Z,7.83
2022-10-11T04:48:55.300Z,7.76
2022-10-11T04:51:21.890Z,7.78
2022-10-11T04:53:49.370Z,7.74
2022-10-11T04:56:16.321Z,7.64
2022-10-11T04:58:42.684Z,7.63
2022-10-11T05:01:09.694Z,7.60
2022-10-11T05:03:36.110Z,7.53
2022-10-11T05:06:05.663Z,7.53
2022-10-11T05:08:33.295Z,7.48
2022-10-11T05:11:04.770Z,7.44
2022-10-11T05:13:32.356Z,7.42
2022-10-11T05:15:58.919Z,7.33
2022-10-11T05:18:25.935Z,7.29
2022-10-11T05:20:59.735Z,7.28
2022-10-11T05:23:26.242Z,7.30
2022-10-11T05:25:52.526Z,7.30
2022-10-11T05:28:18.916Z,7.29
2022-10-11T05:30:45.374Z,7.31
2022-10-11T05:33:11.938Z,7.29
2022-10-11T05:35:38.926Z,7.19
2022-10-11T05:38:05.449Z,7.18
2022-10-11T05:40:32.161Z,7.12
2022-10-11T05:42:58.506Z,7.16
2022-10-11T05:45:25.398Z,7.10
2022-10-11T05:47:53.822Z,7.13
2022-10-11T05:50:24.158Z,7.09
2022-10-11T05:52:51.121Z,7.00
2022-10-11T05:55:17.738Z,6.97
2022-10-11T05:57:44.162Z,7.00
2022-10-11T06:00:11.296Z,7.00
2022-10-11T06:02:37.762Z,6.95
2022-10-11T06:05:04.436Z,6.99
2022-10-11T06:07:30.922Z,6.98
2022-10-11T06:09:57.375Z,7.00
2022-10-11T06:12:23.770Z,7.10
2022-10-11T06:14:50.634Z,7.12
2022-10-11T06:17:17.021Z,7.09
2022-10-11T06:19:43.717Z,7.02
2022-10-11T06:22:12.156Z,7.13
2022-10-11T06:24:38.477Z,7.09
2022-10-11T06:27:05.253Z,7.09
2022-10-11T06:29:31.798Z,7.11
2022-10-11T06:31:58.176Z,7.13
2022-10-11T06:34:24.510Z,7.23
2022-10-11T06:36:51.121Z,7.25
2022-10-11T06:39:18.888Z,7.21
2022-10-11T06:41:45.670Z,7.31
2022-10-11T06:44:14.263Z,7.37
2022-10-11T06:46:41.589Z,7.35
2022-10-11T06:49:08.960Z,7.41
2022-10-11T06:51:35.572Z,7.41
2022-10-11T06:54:02.395Z,7.56
2022-10-11T06:56:30.365Z,7.62
2022-10-11T06:58:58.316Z,7.72
2022-10-11T07:01:25.896Z,7.82
2022-10-11T07:03:53.711Z,7.89
2022-10-11T07:06:25.855Z,8.00
2022-10-11T07:08:53.083Z,8.09
2022-10-11T07:11:22.349Z,8.15
2022-10-11T07:13:54.647Z,8.17
2022-10-11T07:16:21.252Z,8.33
2022-10-11T07:18:48.562Z,8.31
2022-10-11T07:21:16.131Z,8.42
2022-10-11T07:23:43.787Z,8.46
2022-10-11T07:26:11.803Z,8.56
2022-10-11T07:28:40.267Z,8.62
2022-10-11T07:31:12.740Z,8.75
2022-10-11T07:33:39.545Z,8.88
2022-10-11T07:36:07.816Z,9.05
2022-10-11T07:38:34.482Z,9.14
2022-10-11T07:41:05.068Z,9.16
2022-10-11T07:43:32.012Z,9.35
2022-10-11T07:45:59.087Z,9.52
2022-10-11T07:48:25.698Z,9.65
2022-10-11T07:50:52.184Z,9.74
2022-10-11T07:53:18.683Z,9.62
2022-10-11T07:55:45.108Z,9.70
2022-10-11T07:58:12.993Z,9.83
2022-10-11T08:00:39.977Z,9.98
2022-10-11T08:03:06.965Z,10.05
2022-10-11T08:05:33.997Z,10.15
2022-10-11T08:08:00.447Z,10.21
2022-10-11T08:10:32.946Z,10.31
2022-10-11T08:13:04.060Z,10.38
2022-10-11T08:15:31.264Z,10.40
2022-10-11T08:17:57.895Z,10.42
2022-10-11T08:20:24.525Z,10.56
2022-10-11T08:22:50.882Z,10.65
2022-10-11T08:25:17.452Z,10.76
2022-10-11T08:27:44.011Z,10.84
2022-10-11T08:30:12.036Z,10.96
2022-10-11T08:32:38.527Z,10.94
2022-10-11T08:35:05.261Z,10.96
2022-10-11T08:37:31.761Z,10.96
2022-10-11T08:39:58.422Z,11.05
2022-10-11T08:42:35.323Z,11.18
2022-10-11T08:45:11.404Z,11.34
2022-10-11T08:47:44.857Z,11.83
2022-10-11T08:50:23.547Z,12.59
2022-10-11T08:52:58.676Z,12.54
2022-10-11T08:55:49.772Z,12.40
2022-10-11T08:58:21.910Z,12.28
2022-10-11T09:00:52.690Z,12.33
2022-10-11T09:03:28.418Z,12.18
2022-10-11T09:06:04.965Z,12.15
2022-10-11T09:08:56.623Z,12.17
2022-10-11T09:11:35.036Z,12.25
2022-10-11T09:14:17.023Z,12.27
2022-10-11T09:17:02.601Z,12.39
2022-10-11T09:19:47.634Z,12.55
2022-10-11T09:22:26.818Z,13.21
2022-10-11T09:25:22.356Z,13.81
2022-10-11T09:28:17.809Z,14.28
2022-10-11T09:30:50.547Z,14.41
2022-10-11T09:33:28.290Z,14.27
2022-10-11T09:35:57.349Z,14.13
2022-10-11T09:38:38.631Z,14.06
2022-10-11T09:41:09.552Z,14.15
2022-10-11T09:43:35.954Z,13.90
2022-10-11T09:46:02.975Z,13.82
2022-10-11T09:48:41.856Z,13.71
2022-10-11T09:51:16.916Z,13.74
2022-10-11T09:53:49.513Z,13.72
2022-10-11T09:56:16.059Z,13.72
2022-10-11T09:58:42.470Z,13.70
2022-10-11T10:01:11.620Z,13.66
2022-10-11T10:03:41.421Z,13.74
2022-10-11T10:06:10.293Z,13.62
2022-10-11T10:08:37.489Z,13.52
2022-10-11T10:11:05.572Z,13.49
2022-10-11T10:13:53.471Z,13.63
2022-10-11T10:16:28.018Z,13.76
2022-10-11T10:19:15.966Z,13.97
2022-10-11T10:21:51.614Z,14.24
2022-10-11T10:24:26.978Z,14.33
2022-10-11T10:27:08.374Z,14.45
2022-10-11T10:29:34.800Z,14.42
2022-10-11T10:32:15.127Z,14.34
2022-10-11T10:34:57.212Z,14.24
2022-10-11T10:37:29.187Z,14.14
2022-10-11T10:40:03.850Z,14.05
2022-10-11T10:42:30.778Z,14.00
2022-10-11T10:44:57.306Z,13.95
2022-10-11T10:48:05.334Z,13.94
2022-10-11T10:50:49.944Z,13.96
2022-10-11T10:53:29.771Z,14.39
2022-10-11T10:56:08.178Z,14.59
2022-10-11T10:58:53.613Z,14.88
2022-10-11T11:01:26.375Z,14.95
2022-10-11T11:03:58.487Z,15.03
2022-10-11T11:06:54.168Z,15.04
2022-10-11T11:09:33.195Z,15.14
2022-10-11T11:12:06.371Z,15.27
2022-10-11T11:15:14.296Z,15.40
2022-10-11T11:17:59.361Z,15.50
2022-10-11T11:20:59.675Z,15.71
2022-10-11T11:23:39.273Z,15.84
2022-10-11T11:26:33.266Z,15.97
2022-10-11T11:29:20.893Z,16.06
2022-10-11T11:32:13.702Z,16.09
2022-10-11T11:35:08.231Z,16.05
2022-10-11T11:37:38.667Z,16.09
2022-10-11T11:40:13.878Z,16.33
2022-10-11T11:42:48.040Z,16.51
2022-10-11T11:45:29.197Z,16.47
2022-10-11T11:48:20.331Z,16.35
2022-10-11T11:50:56.464Z,16.35
2022-10-11T11:53:50.932Z,16.48
2022-10-11T11:56:30.485Z,16.48
2022-10-11T11:59:10.861Z,16.44
2022-10-11T12:01:49.612Z,16.38
2022-10-11T12:04:21.547Z,16.40
2022-10-11T12:07:17.677Z,16.37
2022-10-11T12:09:45.816Z,16.33
2022-10-11T12:12:31.739Z,16.27
2022-10-11T12:15:24.123Z,16.34
2022-10-11T12:17:56.449Z,16.17
2022-10-11T12:20:35.191Z,16.21
2022-10-11T12:23:29.205Z,16.21
2022-10-11T12:26:28.149Z,16.20
2022-10-11T12:29:00.535Z,16.18
2022-10-11T12:31:33.852Z,16.08
2022-10-11T12:34:09.087Z,16.06
2022-10-11T12:36:57.016Z,16.28
2022-10-11T12:39:23.352Z,16.35
2022-10-11T12:41:49.607Z,16.36
2022-10-11T12:44:19.010Z,16.30
2022-10-11T12:46:53.439Z,16.26
2022-10-11T12:49:47.562Z,16.50
2022-10-11T12:52:16.687Z,16.39
2022-10-11T12:54:58.253Z,16.31
2022-10-11T12:58:22.289Z,16.29
2022-10-11T13:00:51.655Z,16.26
2022-10-11T13:03:47.754Z,16.43
2022-10-11T13:06:19.182Z,16.49
2022-10-11T13:08:52.437Z,16.36
2022-10-11T13:11:22.475Z,16.26
2022-10-11T13:13:57.548Z,16.29
2022-10-11T13:16:28.473Z,16.23
2022-10-11T13:18:58.424Z,16.22
2022-10-11T13:21:36.493Z,16.31
2022-10-11T13:24:18.204Z,16.20
2022-10-11T13:26:49.172Z,16.09
2022-10-11T13:29:18.556Z,16.08
2022-10-11T13:31:47.464Z,16.22
2022-10-11T13:34:14.619Z,16.07
2022-10-11T13:36:42.380Z,16.14
2022-10-11T13:39:30.709Z,16.12
2022-10-11T13:41:59.239Z,16.10
2022-10-11T13:44:27.759Z,16.10
2022-10-11T13:46:54.484Z,16.14
2022-10-11T13:49:35.302Z,16.19
2022-10-11T13:52:04.314Z,16.25
2022-10-11T13:54:57.280Z,16.33
2022-10-11T13:57:41.309Z,16.50
2022-10-11T14:00:23.840Z,16.57
2022-10-11T14:02:57.059Z,16.67
2022-10-11T14:05:36.437Z,16.63
2022-10-11T14:08:07.548Z,16.61
2022-10-11T14:10:34.268Z,16.49
2022-10-11T14:13:07.788Z,16.35
2022-10-11T14:15:38.159Z,16.29
2022-10-11T14:18:42.446Z,16.18
2022-10-11T14:21:43.286Z,16.18
2022-10-11T14:24:09.696Z,16.23
2022-10-11T14:26:42.336Z,16.26
2022-10-11T14:29:15.920Z,16.26
2022-10-11T14:31:42.474Z,16.16
2022-10-11T14:34:17.881Z,16.15
2022-10-11T14:36:44.397Z,16.13
2022-10-11T14:39:17.129Z,16.13
2022-10-11T14:41:43.746Z,16.07
2022-10-11T14:44:10.305Z,16.13
2022-10-11T14:46:37.298Z,16.12
2022-10-11T14:49:12.308Z,16.06
2022-10-11T14:51:39.302Z,16.07
2022-10-11T14:54:05.689Z,16.23
2022-10-11T14:56:32.235Z,16.22
2022-10-11T14:58:58.762Z,16.14
2022-10-11T15:01:25.255Z,16.15
2022-10-11T15:03:51.722Z,16.18
2022-10-11T15:06:21.370Z,16.20
2022-10-11T15:08:48.171Z,16.19
2022-10-11T15:11:17.651Z,16.22
2022-10-11T15:13:44.975Z,16.43
2022-10-11T15:16:17.435Z,16.80
2022-10-11T15:18:43.949Z,17.45
2022-10-11T15:21:14.286Z,17.94
2022-10-11T15:23:40.984Z,18.54
2022-10-11T15:26:07.973Z,18.79
2022-10-11T15:28:34.804Z,18.94
2022-10-11T15:31:01.330Z,18.85
2022-10-11T15:33:27.746Z,18.57
2022-10-11T15:35:54.088Z,18.17
2022-10-11T15:38:23.832Z,17.83
2022-10-11T15:40:51.826Z,17.38
2022-10-11T15:43:23.526Z,17.00
2022-10-11T15:45:51.387Z,16.74
2022-10-11T15:48:18.953Z,16.50
2022-10-11T15:50:45.823Z,16.37
2022-10-11T15:53:18.025Z,16.14
2022-10-11T15:55:47.164Z,15.94
2022-10-11T15:58:21.280Z,15.69
2022-10-11T16:00:50.653Z,15.48
2022-10-11T16:03:18.039Z,15.34
2022-10-11T16:05:44.570Z,15.20
2022-10-11T16:08:11.069Z,15.08
2022-10-11T16:10:37.542Z,14.90
2022-10-11T16:13:04.026Z,14.80
2022-10-11T16:15:31.497Z,14.59
2022-10-11T16:17:57.997Z,14.42
2022-10-11T16:20:24.412Z,14.24
2022-10-11T16:22:52.596Z,14.10
2022-10-11T16:25:20.190Z,14.01
2022-10-11T16:27:46.860Z,13.88
2022-10-11T16:30:15.200Z,13.77
2022-10-11T16:32:42.274Z,13.59
2022-10-11T16:35:09.145Z,13.49
2022-10-11T16:37:35.659Z,13.31
2022-10-11T16:40:02.780Z,13.14
2022-10-11T16:42:29.149Z,13.00
2022-10-11T16:44:56.335Z,12.91
2022-10-11T16:47:22.748Z,12.81
2022-10-11T16:49:49.150Z,12.76
2022-10-11T16:52:16.312Z,12.69
2022-10-11T16:54:46.785Z,12.51
2022-10-11T16:57:16.106Z,12.43
2022-10-11T16:59:42.467Z,12.28
2022-10-11T17:02:18.518Z,12.13
2022-10-11T17:04:45.652Z,12.01
2022-10-11T17:07:12.873Z,11.90
2022-10-11T17:09:43.904Z,11.80
2022-10-11T17:12:12.305Z,11.74
2022-10-11T17:14:39.702Z,11.69
2022-10-11T17:17:07.353Z,11.63
2022-10-11T17:19:34.059Z,11.46
2022-10-11T17:22:00.679Z,11.39
2022-10-11T17:24:27.175Z,11.35
2022-10-11T17:26:54.560Z,11.24
2022-10-11T17:29:21.150Z,11.19
2022-10-11T17:31:49.373Z,11.08
2022-10-11T17:34:17.171Z,11.02
2022-10-11T17:36:44.145Z,10.97
2022-10-11T17:39:16.801Z,10.94
2022-10-11T17:41:44.033Z,10.84
2022-10-11T17:44:11.198Z,10.77
2022-10-11T17:46:37.974Z,10.69
2022-10-11T17:49:06.780Z,10.67
2022-10-11T17:51:35.134Z,10.65
2022-10-11T17:54:01.693Z,10.58
2022-10-11T17:56:32.424Z,10.54
2022-10-11T17:59:01.638Z,10.43
2022-10-11T18:01:29.395Z,10.40
2022-10-11T18:03:58.913Z,10.30
2022-10-11T18:06:27.502Z,10.26
2022-10-11T18:08:54.293Z,10.20
2022-10-11T18:11:21.632Z,10.12
2022-10-11T18:13:50.151Z,10.01
2022-10-11T18:16:18.847Z,9.98
2022-10-11T18:18:45.494Z,9.92
2022-10-11T18:21:12.167Z,9.84
2022-10-11T18:23:38.847Z,9.72
2022-10-11T18:26:10.479Z,9.72
2022-10-11T18:28:37.068Z,9.63
2022-10-11T18:31:12.886Z,9.60
2022-10-11T18:33:39.850Z,9.48
2022-10-11T18:36:08.074Z,9.47
2022-10-11T18:38:35.552Z,9.44
2022-10-11T18:41:07.026Z,9.37
2022-10-11T18:43:34.465Z,9.29
2022-10-11T18:46:09.554Z,9.27
2022-10-11T18:48:36.255Z,9.26
2022-10-11T18:51:08.521Z,9.24
2022-10-11T18:53:36.088Z,9.19
2022-10-11T18:56:05.035Z,9.13
2022-10-11T18:58:33.799Z,9.10
2022-10-11T19:01:15.015Z,9.03
2022-10-11T19:03:42.498Z,8.99
2022-10-11T19:06:12.841Z,8.93
2022-10-11T19:08:39.253Z,8.76
2022-10-11T19:11:07.557Z,8.75
2022-10-11T19:13:42.864Z,8.73
2022-10-11T19:16:12.470Z,8.69
2022-10-11T19:18:44.095Z,8.67
2022-10-11T19:21:13.195Z,8.58
2022-10-11T19:23:42.841Z,8.56
2022-10-11T19:26:15.043Z,8.51
2022-10-11T19:28:41.923Z,8.41
2022-10-11T19:31:10.995Z,8.37
2022-10-11T19:33:37.890Z,8.34
2022-10-11T19:36:05.756Z,8.39
2022-10-11T19:38:36.060Z,8.29
2022-10-11T19:41:04.418Z,8.20
2022-10-11T19:43:31.837Z,8.18
2022-10-11T19:46:06.999Z,8.13
2022-10-11T19:48:37.392Z,8.08
2022-10-11T19:51:09.195Z,8.13
2022-10-11T19:53:36.546Z,8.02
2022-10-11T19:56:04.745Z,8.00
2022-10-11T19:58:31.384Z,7.94
2022-10-11T20:01:07.237Z,7.93
2022-10-11T20:03:34.413Z,7.96
2022-10-11T20:06:05.853Z,7.89
2022-10-11T20:08:33.352Z,7.82
2022-10-11T20:11:01.994Z,7.78
2022-10-11T20:13:33.907Z,7.77
2022-10-11T20:16:10.306Z,7.77
2022-10-11T20:18:37.288Z,7.77
2022-10-11T20:21:06.942Z,7.68
2022-10-11T20:23:35.043Z,7.58
2022-10-11T20:26:05.020Z,7.57
2022-10-11T20:28:33.229Z,7.57
2022-10-11T20:31:00.740Z,7.55
2022-10-11T20:33:29.890Z,7.43
2022-10-11T20:36:01.841Z,7.39
2022-10-11T20:38:30.019Z,7.35
2022-10-11T20:40:56.977Z,7.29
2022-10-11T20:43:23.950Z,7.27
2022-10-11T20:46:04.401Z,7.24
2022-10-11T20:48:32.115Z,7.25
2022-10-11T20:50:58.703Z,7.19
2022-10-11T20:53:25.732Z,7.14
2022-10-11T20:55:52.315Z,7.12
2022-10-11T20:58:19.319Z,7.10
2022-10-11T21:00:45.971Z,7.08
2022-10-11T21:03:12.640Z,7.00
2022-10-11T21:05:39.009Z,6.98
2022-10-11T21:08:05.620Z,6.95
2022-10-11T21:10:32.279Z,6.88
2022-10-11T21:12:58.945Z,6.88
2022-10-11T21:15:25.728Z,6.85
2022-10-11T21:17:52.327Z,6.80
2022-10-11T21:20:18.637Z,6.84
2022-10-11T21:22:44.991Z,6.80
2022-10-11T21:25:11.576Z,6.67
2022-10-11T21:27:37.916Z,6.71
2022-10-11T21:30:04.650Z,6.70
2022-10-11T21:32:31.108Z,6.69
2022-10-11T21:34:57.533Z,6.58
2022-10-11T21:37:24.001Z,6.64
2022-10-11T21:39:50.701Z,6.59
2022-10-11T21:42:17.696Z,6.62
2022-10-11T21:44:44.234Z,6.55
2022-10-11T21:47:10.877Z,6.45
2022-10-11T21:49:37.619Z,6.39
2022-10-11T21:52:04.246Z,6.41
2022-10-11T21:54:30.656Z,6.33
2022-10-11T21:56:56.971Z,6.31
2022-10-11T21:59:23.405Z,6.28
2022-10-11T22:01:49.904Z,6.28
2022-10-11T22:04:16.304Z,6.28
2022-10-11T22:06:42.617Z,6.22
2022-10-11T22:09:09.708Z,6.26
2022-10-11T22:11:36.270Z,6.22
2022-10-11T22:14:03.215Z,6.22
2022-10-11T22:16:29.545Z,6.18
2022-10-11T22:18:56.019Z,6.17
2022-10-11T22:21:23.461Z,6.05
2022-10-11T22:23:52.555Z,6.16
2022-10-11T22:26:25.800Z,6.14
2022-10-11T22:28:52.263Z,6.04
2022-10-11T22:31:20.454Z,6.03
2022-10-11T22:33:46.929Z,6.01
2022-10-11T22:36:14.886Z,5.97
2022-10-11T22:38:42.859Z,5.95
2022-10-11T22:41:09.773Z,5.93
2022-10-11T22:43:36.121Z,5.95
2022-10-11T22:46:02.539Z,5.94
2022-10-11T22:48:29.723Z,5.91
2022-10-11T22:50:56.518Z,5.85
2022-10-11T22:53:23.059Z,5.83
2022-10-11T22:55:49.441Z,5.82
2022-10-11T22:58:16.126Z,5.83
2022-10-11T23:00:43.073Z,5.85
2022-10-11T23:03:13.605Z,5.76
2022-10-11T23:05:39.990Z,5.76
2022-10-11T23:08:06.639Z,5.66
2022-10-11T23:10:33.254Z,5.67
2022-10-11T23:12:59.937Z,5.63
2022-10-11T23:15:26.680Z,5.60
2022-10-11T23:17:52.983Z,5.64
2022-10-11T23:20:19.292Z,5.55
2022-10-11T23:22:45.704Z,5.52
2022-10-11T23:25:12.025Z,5.44
2022-10-11T23:27:39.052Z,5.47
2022-10-11T23:30:06.179Z,5.46
2022-10-11T23:32:32.686Z,5.42
2022-10-11T23:34:59.019Z,5.40
2022-10-11T23:37:25.395Z,5.42
2022-10-11T23:39:51.734Z,5.31
2022-10-11T23:42:18.122Z,5.33
2022-10-11T23:44:44.430Z,5.34
2022-10-11T23:47:10.988Z,5.29
2022-10-11T23:49:37.423Z,5.27
2022-10-11T23:52:03.810Z,5.26
2022-10-11T23:54:30.216Z,5.23
2022-10-11T23:56:56.842Z,5.18
2022-10-11T23:59:23.481Z,5.16
